Terminal Aerodrome Forecast
Issued by NWS Amarillo, TX

Home | Current Version | Previous Version | Text Only | Print | Product List | Glossary On
Versions: 1 2 3 4 5 6 7 8 9 10 11 12 13 14 15 16 17 18 19 20 21 22 23 24
000
FTUS44 KAMA 161132
TAFAMA
TAF
KAMA 161132Z 1612/1712 16009KT P6SM FEW020
     FM161400 29010KT P6SM SCT200
     FM161900 32008KT P6SM SCT060
     FM170000 06008KT P6SM SKC=

USA.gov is the U.S. government's official web portal to all federal, state and local government web resources and services.